Time;durP1;ratioP1;P1;durP2;ratioP2;P2;SDS_P1;SDS_P2;PMS_P1;PMS_P2;Temp;Humidity;BMP_temperature;BMP_pressure;BME280_temperature;BME280_humidity;BME280_pressure;Samples;Min_cycle;Max_cycle;Signal;HPM_P1;HPM_P2
2021/07/27 00:01:11;;;;;;;39.95;16.65;;;;;;;;;;5001088;28;20056;-52
2021/07/27 00:03:38;;;;;;;37.63;15.90;;;;;;;;;;5002114;28;20042;-52
2021/07/27 00:06:06;;;;;;;35.63;16.63;;;;;;;;;;5016222;28;20052;-49
2021/07/27 00:08:36;;;;;;;43.85;17.27;;;;;;;;;;4982634;28;20053;-51
2021/07/27 00:11:02;;;;;;;40.05;17.33;;;;;;;;;;4996885;28;20070;-54
2021/07/27 00:13:28;;;;;;;48.13;18.98;;;;;;;;;;4980323;28;20057;-51
2021/07/27 00:15:55;;;;;;;39.42;17.27;;;;;;;;;;5001334;28;20035;-52
2021/07/27 00:18:22;;;;;;;44.33;18.38;;;;;;;;;;4996583;28;20044;-56
2021/07/27 00:20:48;;;;;;;42.70;18.00;;;;;;;;;;4983942;28;20042;-53
2021/07/27 00:23:15;;;;;;;52.20;18.70;;;;;;;;;;4981288;28;20030;-53
2021/07/27 00:25:43;;;;;;;46.55;17.92;;;;;;;;;;4999858;28;20059;-53
2021/07/27 00:28:10;;;;;;;42.55;16.92;;;;;;;;;;4991948;28;20100;-50
2021/07/27 00:30:37;;;;;;;50.05;18.33;;;;;;;;;;5003193;28;20042;-53
2021/07/27 00:33:04;;;;;;;50.70;17.98;;;;;;;;;;5013718;28;20044;-53
2021/07/27 00:35:32;;;;;;;46.90;19.10;;;;;;;;;;5001738;28;20034;-53
2021/07/27 00:38:08;;;;;;;47.47;18.65;;;;;;;;;;4989710;28;20034;-48
2021/07/27 00:40:34;;;;;;;40.60;16.85;;;;;;;;;;4998528;28;20054;-51
2021/07/27 00:43:08;;;;;;;42.38;18.20;;;;;;;;;;4994426;28;20034;-51
2021/07/27 00:45:35;;;;;;;40.97;17.48;;;;;;;;;;4981087;28;20053;-54
2021/07/27 00:48:01;;;;;;;48.42;19.23;;;;;;;;;;4982734;28;20057;-49
2021/07/27 00:50:28;;;;;;;43.38;18.35;;;;;;;;;;5001015;28;20049;-53
2021/07/27 00:52:56;;;;;;;47.63;18.50;;;;;;;;;;4998671;28;20046;-53
2021/07/27 00:55:23;;;;;;;48.15;18.83;;;;;;;;;;4981570;28;20050;-53
2021/07/27 00:57:49;;;;;;;43.67;18.10;;;;;;;;;;4982186;28;20054;-51
2021/07/27 01:00:18;;;;;;;46.10;17.40;;;;;;;;;;4996665;28;20038;-52
2021/07/27 01:02:44;;;;;;;43.65;17.95;;;;;;;;;;5000760;28;20034;-53
2021/07/27 01:05:11;;;;;;;39.35;17.02;;;;;;;;;;5004079;28;20065;-49
2021/07/27 01:07:38;;;;;;;40.92;18.45;;;;;;;;;;5021474;28;20057;-52
2021/07/27 01:10:05;;;;;;;43.10;18.90;;;;;;;;;;4994436;28;20046;-52
2021/07/27 01:12:33;;;;;;;51.40;19.45;;;;;;;;;;4997598;28;20038;-51
2021/07/27 01:14:59;;;;;;;48.47;18.35;;;;;;;;;;5006858;28;20053;-52
2021/07/27 01:17:27;;;;;;;44.90;18.23;;;;;;;;;;5002266;28;20026;-52
2021/07/27 01:19:57;;;;;;;38.00;17.73;;;;;;;;;;4989553;28;20075;-50
2021/07/27 01:39:18;;;;;;;36.88;16.80;;;;;;;;;;4984341;28;20053;-53
2021/07/27 01:44:29;;;;;;;34.85;16.98;;;;;;;;;;5002573;28;20038;-52
2021/07/27 01:46:56;;;;;;;43.13;18.45;;;;;;;;;;4998853;28;20050;-53
2021/07/27 01:49:23;;;;;;;42.28;17.15;;;;;;;;;;5006225;28;20057;-53
2021/07/27 01:51:49;;;;;;;40.72;17.27;;;;;;;;;;4999305;28;20034;-48
2021/07/27 01:54:17;;;;;;;45.67;17.42;;;;;;;;;;5005031;28;20038;-48
2021/07/27 01:56:46;;;;;;;39.30;17.08;;;;;;;;;;5000491;28;20065;-49
2021/07/27 01:59:12;;;;;;;35.42;17.38;;;;;;;;;;5006105;28;20038;-49
2021/07/27 02:01:40;;;;;;;46.97;18.02;;;;;;;;;;4990388;28;20158;-51
2021/07/27 02:04:06;;;;;;;42.10;18.47;;;;;;;;;;5010265;28;20074;-52
2021/07/27 02:06:33;;;;;;;37.55;17.58;;;;;;;;;;5000771;28;20042;-51
2021/07/27 02:09:05;;;;;;;41.83;17.65;;;;;;;;;;5003785;28;20046;-52
2021/07/27 02:11:38;;;;;;;40.00;17.85;;;;;;;;;;5001587;28;20037;-52
2021/07/27 02:14:05;;;;;;;42.70;17.48;;;;;;;;;;5006304;28;20042;-51
2021/07/27 02:16:31;;;;;;;36.40;17.08;;;;;;;;;;5002295;28;20030;-54
2021/07/27 02:18:58;;;;;;;38.78;17.73;;;;;;;;;;5024724;28;20061;-53
2021/07/27 02:21:25;;;;;;;39.28;17.45;;;;;;;;;;5003709;28;20041;-50
2021/07/27 02:23:51;;;;;;;46.17;18.92;;;;;;;;;;5006299;28;20046;-53
2021/07/27 02:26:18;;;;;;;43.65;20.05;;;;;;;;;;5006832;28;20123;-52
2021/07/27 02:28:46;;;;;;;47.92;19.23;;;;;;;;;;4999051;28;20062;-51
2021/07/27 02:31:16;;;;;;;53.23;19.77;;;;;;;;;;5002512;28;20094;-50
2021/07/27 02:33:43;;;;;;;45.92;20.48;;;;;;;;;;5002325;28;20293;-53
2021/07/27 02:36:09;;;;;;;51.60;20.58;;;;;;;;;;5024923;28;20082;-53
2021/07/27 02:38:37;;;;;;;47.25;20.75;;;;;;;;;;5002309;28;20056;-53
2021/07/27 02:41:04;;;;;;;42.35;20.27;;;;;;;;;;5005280;28;20053;-52
2021/07/27 02:43:31;;;;;;;48.05;20.40;;;;;;;;;;5019700;28;20042;-53
2021/07/27 02:45:59;;;;;;;49.83;20.50;;;;;;;;;;5006696;28;20046;-51
2021/07/27 02:48:25;;;;;;;49.67;21.17;;;;;;;;;;5020059;28;20109;-52
2021/07/27 02:51:00;;;;;;;45.95;21.20;;;;;;;;;;5023055;28;20038;-53
2021/07/27 02:53:29;;;;;;;55.95;21.58;;;;;;;;;;4999875;28;20049;-51
2021/07/27 02:55:59;;;;;;;48.17;22.63;;;;;;;;;;5005074;28;20101;-53
2021/07/27 02:58:29;;;;;;;49.90;22.02;;;;;;;;;;5002660;28;20123;-51
2021/07/27 03:00:56;;;;;;;48.22;20.67;;;;;;;;;;5006477;28;20041;-47
2021/07/27 03:03:24;;;;;;;49.35;21.83;;;;;;;;;;5018641;28;20053;-52
2021/07/27 03:05:54;;;;;;;47.30;20.85;;;;;;;;;;5006214;28;20041;-52
2021/07/27 03:08:22;;;;;;;44.05;20.20;;;;;;;;;;5002797;28;20065;-50
2021/07/27 03:10:48;;;;;;;55.05;21.88;;;;;;;;;;4991678;28;20046;-50
2021/07/27 03:13:15;;;;;;;50.78;24.13;;;;;;;;;;5004111;28;20112;-50
2021/07/27 03:15:43;;;;;;;50.70;22.42;;;;;;;;;;5017696;28;20050;-51
2021/07/27 03:18:09;;;;;;;51.08;22.50;;;;;;;;;;5004806;28;20065;-53
2021/07/27 03:20:37;;;;;;;48.47;22.80;;;;;;;;;;5003085;28;20055;-48
2021/07/27 03:23:04;;;;;;;51.78;22.67;;;;;;;;;;5005504;28;20053;-51
2021/07/27 03:25:31;;;;;;;52.83;23.73;;;;;;;;;;5020540;28;20107;-53
2021/07/27 03:27:57;;;;;;;54.47;22.70;;;;;;;;;;5006288;28;20066;-51
2021/07/27 03:30:23;;;;;;;52.22;23.50;;;;;;;;;;5000427;28;20050;-53
2021/07/27 03:32:50;;;;;;;48.75;23.45;;;;;;;;;;5018535;28;20053;-48
2021/07/27 03:35:16;;;;;;;50.17;22.48;;;;;;;;;;5000396;28;20113;-49
2021/07/27 03:37:44;;;;;;;49.92;22.80;;;;;;;;;;5004483;28;20046;-51
2021/07/27 03:40:14;;;;;;;54.63;23.67;;;;;;;;;;5002862;28;20035;-52
2021/07/27 03:42:40;;;;;;;49.20;22.55;;;;;;;;;;5005799;28;20045;-52
2021/07/27 03:45:07;;;;;;;48.97;22.40;;;;;;;;;;5003446;28;20049;-48
2021/07/27 03:47:34;;;;;;;51.75;23.65;;;;;;;;;;5005418;28;20030;-52
2021/07/27 03:50:00;;;;;;;53.25;23.38;;;;;;;;;;5002270;28;20101;-49
2021/07/27 03:52:27;;;;;;;54.58;24.33;;;;;;;;;;5004303;28;20042;-49
2021/07/27 03:54:55;;;;;;;54.25;22.98;;;;;;;;;;5003860;28;20056;-50
2021/07/27 03:57:21;;;;;;;52.40;24.50;;;;;;;;;;5004505;28;20057;-53
2021/07/27 03:59:48;;;;;;;47.97;23.23;;;;;;;;;;5004899;28;20109;-51
2021/07/27 04:02:14;;;;;;;52.72;22.83;;;;;;;;;;5012499;28;20053;-51
2021/07/27 04:04:42;;;;;;;50.92;22.45;;;;;;;;;;5021664;28;20034;-50
2021/07/27 04:07:09;;;;;;;46.58;21.80;;;;;;;;;;5001107;28;20038;-53
2021/07/27 04:09:38;;;;;;;49.43;22.70;;;;;;;;;;5005051;28;20038;-50
2021/07/27 04:12:04;;;;;;;;;;;;;;;;;;5018210;28;20101;-48
2021/07/27 04:14:32;;;;;;;36.97;18.05;;;;;;;;;;5003620;28;19925;-52
2021/07/27 04:16:58;;;;;;;39.80;18.80;;;;;;;;;;5002195;28;20045;-48
2021/07/27 04:19:25;;;;;;;39.25;18.23;;;;;;;;;;5003652;28;20038;-49
2021/07/27 04:21:51;;;;;;;36.50;18.98;;;;;;;;;;4999206;28;20038;-52
2021/07/27 04:24:18;;;;;;;34.85;17.95;;;;;;;;;;5019221;28;20063;-49
2021/07/27 04:26:46;;;;;;;35.05;16.80;;;;;;;;;;5002328;28;20052;-51
2021/07/27 04:29:12;;;;;;;36.95;17.35;;;;;;;;;;5004509;28;20034;-51
2021/07/27 04:31:41;;;;;;;36.67;17.38;;;;;;;;;;5000071;28;20098;-50
2021/07/27 04:34:07;;;;;;;34.03;17.13;;;;;;;;;;5003955;28;20037;-50
2021/07/27 04:36:34;;;;;;;34.88;17.38;;;;;;;;;;5002825;28;20052;-53
2021/07/27 04:39:00;;;;;;;33.25;16.88;;;;;;;;;;5001523;28;20046;-53
2021/07/27 04:41:27;;;;;;;34.50;16.48;;;;;;;;;;5001951;28;20041;-52
2021/07/27 04:43:56;;;;;;;28.25;14.77;;;;;;;;;;5000309;28;20049;-50
2021/07/27 04:46:22;;;;;;;29.00;15.68;;;;;;;;;;5004999;28;20048;-51
2021/07/27 04:48:50;;;;;;;36.55;15.77;;;;;;;;;;5001338;28;20041;-49
2021/07/27 04:51:16;;;;;;;30.90;15.70;;;;;;;;;;5005066;28;20047;-51
2021/07/27 04:53:43;;;;;;;31.02;16.13;;;;;;;;;;5001313;28;20052;-52
2021/07/27 04:56:10;;;;;;;30.63;14.52;;;;;;;;;;5004372;28;20049;-48
2021/07/27 04:58:37;;;;;;;33.03;15.00;;;;;;;;;;5001140;28;20045;-50
2021/07/27 05:01:03;;;;;;;30.13;14.68;;;;;;;;;;5004805;28;20033;-49
2021/07/27 05:03:30;;;;;;;35.75;14.70;;;;;;;;;;4998350;28;20042;-50
2021/07/27 05:05:58;;;;;;;33.35;15.23;;;;;;;;;;5001367;28;20038;-51
2021/07/27 05:08:24;;;;;;;34.55;15.18;;;;;;;;;;4997932;28;20042;-49
2021/07/27 05:10:51;;;;;;;33.47;15.93;;;;;;;;;;5007192;28;20034;-47
2021/07/27 05:13:17;;;;;;;23.98;12.68;;;;;;;;;;4987155;28;20050;-48
2021/07/27 05:15:44;;;;;;;26.58;14.27;;;;;;;;;;4998704;28;20049;-52
2021/07/27 05:18:10;;;;;;;30.38;13.80;;;;;;;;;;5000187;28;20045;-51
2021/07/27 05:20:37;;;;;;;31.38;14.10;;;;;;;;;;5011704;28;20034;-49
2021/07/27 05:23:04;;;;;;;27.25;13.25;;;;;;;;;;4995552;28;20089;-51
2021/07/27 05:25:33;;;;;;;26.10;12.47;;;;;;;;;;4995600;28;20038;-48
2021/07/27 05:27:59;;;;;;;30.67;13.27;;;;;;;;;;5012716;28;20054;-55
2021/07/27 05:30:25;;;;;;;31.67;13.60;;;;;;;;;;4994416;28;20057;-50
2021/07/27 05:32:52;;;;;;;24.10;12.32;;;;;;;;;;4998776;28;20054;-53
2021/07/27 05:35:18;;;;;;;26.42;13.00;;;;;;;;;;4996343;28;20045;-51
2021/07/27 05:37:45;;;;;;;28.38;12.82;;;;;;;;;;4995844;28;20046;-53
2021/07/27 05:40:13;;;;;;;26.40;13.32;;;;;;;;;;4994547;28;20058;-51
2021/07/27 05:42:40;;;;;;;28.63;13.02;;;;;;;;;;5016035;28;20054;-51
2021/07/27 05:45:06;;;;;;;28.02;13.43;;;;;;;;;;4994656;28;20056;-51
2021/07/27 05:47:33;;;;;;;27.73;13.20;;;;;;;;;;5001565;28;20059;-49
2021/07/27 05:50:00;;;;;;;31.38;12.63;;;;;;;;;;5010246;28;20061;-50
2021/07/27 05:52:26;;;;;;;25.05;12.90;;;;;;;;;;4998861;28;20132;-49
2021/07/27 05:54:53;;;;;;;29.80;14.15;;;;;;;;;;4994313;28;20101;-51
2021/07/27 05:57:21;;;;;;;28.63;14.48;;;;;;;;;;4997045;28;20050;-52
2021/07/27 05:59:48;;;;;;;25.35;12.93;;;;;;;;;;4997241;28;20069;-52
2021/07/27 06:02:16;;;;;;;30.98;13.88;;;;;;;;;;4996357;28;20068;-51
2021/07/27 06:04:42;;;;;;;28.42;13.10;;;;;;;;;;4996597;28;20055;-49
2021/07/27 06:07:09;;;;;;;30.10;12.77;;;;;;;;;;4998196;28;20053;-48
2021/07/27 06:09:36;;;;;;;25.58;13.00;;;;;;;;;;5013719;28;20088;-52
2021/07/27 06:12:02;;;;;;;26.92;13.32;;;;;;;;;;4995621;28;20096;-53
2021/07/27 06:14:30;;;;;;;30.13;12.80;;;;;;;;;;5000650;28;20042;-49
2021/07/27 06:16:57;;;;;;;24.80;12.50;;;;;;;;;;4995133;28;20054;-48
2021/07/27 06:19:25;;;;;;;25.25;12.88;;;;;;;;;;5012633;28;20090;-50
2021/07/27 06:21:52;;;;;;;28.77;13.00;;;;;;;;;;4992825;28;20074;-47
2021/07/27 06:24:18;;;;;;;33.50;13.20;;;;;;;;;;4993859;28;20034;-52
2021/07/27 06:26:45;;;;;;;26.40;13.60;;;;;;;;;;4992852;28;20060;-47
2021/07/27 06:29:12;;;;;;;26.60;12.48;;;;;;;;;;4984632;28;20043;-49
2021/07/27 06:31:40;;;;;;;24.00;13.05;;;;;;;;;;4981482;28;20063;-48
2021/07/27 06:34:07;;;;;;;25.77;12.55;;;;;;;;;;4983605;28;20089;-52
2021/07/27 06:36:34;;;;;;;26.45;12.90;;;;;;;;;;4972865;28;20042;-52
2021/07/27 06:39:01;;;;;;;27.83;13.80;;;;;;;;;;5003388;28;20041;-53
2021/07/27 06:41:29;;;;;;;26.33;12.90;;;;;;;;;;4999493;28;20121;-52
2021/07/27 06:43:57;;;;;;;26.52;12.82;;;;;;;;;;4996492;28;20046;-51
2021/07/27 06:46:23;;;;;;;27.08;13.00;;;;;;;;;;5005084;28;20368;-48
2021/07/27 06:48:51;;;;;;;29.60;12.85;;;;;;;;;;5001319;28;20056;-48
2021/07/27 06:51:18;;;;;;;31.63;15.60;;;;;;;;;;5003684;28;20037;-50
2021/07/27 06:53:45;;;;;;;28.25;13.35;;;;;;;;;;4999255;28;20053;-52
2021/07/27 06:56:12;;;;;;;26.90;13.52;;;;;;;;;;5003084;28;20128;-50
2021/07/27 06:58:40;;;;;;;30.25;13.43;;;;;;;;;;5000717;28;20042;-51
2021/07/27 07:01:06;;;;;;;26.67;13.48;;;;;;;;;;5003177;28;20038;-51
2021/07/27 07:03:33;;;;;;;27.13;13.65;;;;;;;;;;4998968;28;20042;-49
2021/07/27 07:06:01;;;;;;;29.00;13.98;;;;;;;;;;5003172;28;20042;-51
2021/07/27 07:08:28;;;;;;;30.27;13.82;;;;;;;;;;4997907;28;20046;-52
2021/07/27 07:10:55;;;;;;;39.65;15.63;;;;;;;;;;5002403;28;20046;-53
2021/07/27 07:13:21;;;;;;;34.50;14.10;;;;;;;;;;5013625;28;20108;-49
2021/07/27 07:15:48;;;;;;;25.27;14.25;;;;;;;;;;5003375;28;20051;-50
2021/07/27 07:18:14;;;;;;;31.30;15.05;;;;;;;;;;4999166;28;20041;-49
2021/07/27 07:20:41;;;;;;;27.20;14.02;;;;;;;;;;4996282;28;20033;-52
2021/07/27 07:23:08;;;;;;;27.98;13.98;;;;;;;;;;4998441;28;20057;-51
2021/07/27 07:25:39;;;;;;;29.60;12.70;;;;;;;;;;5007986;28;20095;-51
2021/07/27 07:28:07;;;;;;;27.80;13.63;;;;;;;;;;4982672;28;20031;-51
2021/07/27 07:30:34;;;;;;;26.88;13.55;;;;;;;;;;4998828;28;20046;-52
2021/07/27 07:33:00;;;;;;;24.80;13.18;;;;;;;;;;5002458;28;20038;-53
2021/07/27 07:35:27;;;;;;;33.92;13.95;;;;;;;;;;4997265;28;20048;-51
2021/07/27 07:37:54;;;;;;;28.08;14.00;;;;;;;;;;5004061;28;20042;-50
2021/07/27 07:40:22;;;;;;;31.35;15.00;;;;;;;;;;4999343;28;20049;-52
2021/07/27 07:42:48;;;;;;;34.25;17.77;;;;;;;;;;5002057;28;20089;-53
2021/07/27 07:45:15;;;;;;;36.50;16.05;;;;;;;;;;5000294;28;20046;-51
2021/07/27 07:47:42;;;;;;;28.10;13.93;;;;;;;;;;5001821;28;20049;-52
2021/07/27 07:50:10;;;;;;;30.83;16.55;;;;;;;;;;4991615;28;20039;-52
2021/07/27 07:52:36;;;;;;;26.42;14.07;;;;;;;;;;4999207;28;20105;-51
2021/07/27 07:55:04;;;;;;;115.70;19.63;;;;;;;;;;4988050;28;20034;-47
2021/07/27 07:57:32;;;;;;;104.93;20.13;;;;;;;;;;5002469;28;20114;-53
2021/07/27 08:00:00;;;;;;;35.70;13.82;;;;;;;;;;4993290;28;20090;-52
2021/07/27 08:02:27;;;;;;;27.00;13.68;;;;;;;;;;4998446;28;20034;-50
2021/07/27 08:04:53;;;;;;;24.45;12.50;;;;;;;;;;4981616;28;20128;-51
2021/07/27 08:07:20;;;;;;;30.63;12.70;;;;;;;;;;5004273;28;20050;-50
2021/07/27 08:09:46;;;;;;;28.52;14.23;;;;;;;;;;4996790;28;20042;-52
2021/07/27 08:12:13;;;;;;;29.55;14.43;;;;;;;;;;4998499;28;20056;-50
2021/07/27 08:14:43;;;;;;;26.58;13.13;;;;;;;;;;5002671;28;20116;-52
2021/07/27 08:17:12;;;;;;;25.58;11.48;;;;;;;;;;4999809;28;20078;-52
2021/07/27 08:19:38;;;;;;;;;;;;;;;;;;5001555;28;20042;-50
2021/07/27 08:22:05;;;;;;;26.15;12.05;;;;;;;;;;4985134;28;19926;-50
2021/07/27 08:24:32;;;;;;;31.80;12.25;;;;;;;;;;4983995;28;20047;-49
2021/07/27 08:26:59;;;;;;;34.53;13.00;;;;;;;;;;4991503;28;20066;-52
2021/07/27 08:29:26;;;;;;;26.65;12.98;;;;;;;;;;5000703;28;20118;-50
2021/07/27 08:31:53;;;;;;;29.65;13.70;;;;;;;;;;4997253;28;20069;-53
2021/07/27 08:34:20;;;;;;;47.63;13.35;;;;;;;;;;5017192;28;20072;-53
2021/07/27 08:36:47;;;;;;;25.63;14.48;;;;;;;;;;4996890;28;20101;-49
2021/07/27 08:39:14;;;;;;;49.75;15.32;;;;;;;;;;5001940;28;20030;-51
2021/07/27 08:41:40;;;;;;;26.95;14.20;;;;;;;;;;4996341;28;20062;-51
2021/07/27 08:44:08;;;;;;;26.00;13.50;;;;;;;;;;5002937;28;20111;-51
2021/07/27 08:46:35;;;;;;;30.53;13.90;;;;;;;;;;4998974;28;20136;-50
2021/07/27 08:49:03;;;;;;;29.33;12.95;;;;;;;;;;5000709;28;20120;-53
2021/07/27 08:51:29;;;;;;;30.00;13.13;;;;;;;;;;4999878;28;20049;-50
2021/07/27 08:53:56;;;;;;;27.00;13.88;;;;;;;;;;5000130;28;20128;-54
2021/07/27 08:56:23;;;;;;;27.42;13.20;;;;;;;;;;5002211;28;20046;-53
2021/07/27 08:58:50;;;;;;;29.13;13.97;;;;;;;;;;4997334;28;20054;-54
2021/07/27 09:01:23;;;;;;;24.80;13.27;;;;;;;;;;4999734;28;20045;-53
2021/07/27 09:03:49;;;;;;;23.20;12.45;;;;;;;;;;4989414;28;20049;-51
2021/07/27 09:06:22;;;;;;;28.27;13.25;;;;;;;;;;5000910;28;20049;-52
2021/07/27 09:08:48;;;;;;;28.27;13.18;;;;;;;;;;4997657;28;20057;-53
2021/07/27 09:11:17;;;;;;;23.08;11.88;;;;;;;;;;5000865;28;20163;-53
2021/07/27 09:13:54;;;;;;;26.02;12.25;;;;;;;;;;5014071;28;20043;-52
2021/07/27 09:16:21;;;;;;;30.52;12.35;;;;;;;;;;5000803;28;20139;-53
2021/07/27 09:18:57;;;;;;;23.10;12.77;;;;;;;;;;4997477;28;20050;-51
2021/07/27 09:21:27;;;;;;;25.27;13.95;;;;;;;;;;5001042;28;20046;-48
2021/07/27 09:23:54;;;;;;;23.25;12.70;;;;;;;;;;4997802;28;20045;-49
2021/07/27 09:26:21;;;;;;;23.02;11.45;;;;;;;;;;5005564;28;20117;-52
2021/07/27 09:28:48;;;;;;;25.35;12.07;;;;;;;;;;5007592;28;20042;-53
2021/07/27 09:31:16;;;;;;;18.40;10.38;;;;;;;;;;5001195;28;20052;-52
2021/07/27 09:33:42;;;;;;;18.37;10.93;;;;;;;;;;4996846;28;20079;-54
2021/07/27 09:36:10;;;;;;;25.23;11.55;;;;;;;;;;5002942;28;20287;-50
2021/07/27 09:38:38;;;;;;;28.45;11.35;;;;;;;;;;4997444;28;20060;-51
2021/07/27 09:41:06;;;;;;;23.17;10.48;;;;;;;;;;4999477;28;20042;-51
2021/07/27 09:43:32;;;;;;;19.63;10.97;;;;;;;;;;4997862;28;20112;-51
2021/07/27 09:46:00;;;;;;;29.38;11.05;;;;;;;;;;4999966;28;20291;-51
2021/07/27 09:48:27;;;;;;;19.30;10.55;;;;;;;;;;4994257;28;20076;-52
2021/07/27 09:50:54;;;;;;;19.95;10.15;;;;;;;;;;4996738;28;20048;-50
2021/07/27 09:53:23;;;;;;;21.27;10.00;;;;;;;;;;5001183;28;20042;-51
2021/07/27 09:55:52;;;;;;;20.75;11.27;;;;;;;;;;4997186;28;20038;-52
2021/07/27 09:58:19;;;;;;;22.42;10.38;;;;;;;;;;5001200;28;20034;-51
2021/07/27 10:00:50;;;;;;;16.70;10.27;;;;;;;;;;5001879;28;20030;-50
2021/07/27 10:03:18;;;;;;;17.33;10.13;;;;;;;;;;5005215;28;20074;-53
2021/07/27 10:05:45;;;;;;;;;;;;;;;;;;5001831;28;20035;-47
2021/07/27 10:08:11;;;;;;;18.40;9.75;;;;;;;;;;5001760;28;19922;-53
2021/07/27 10:10:38;;;;;;;21.90;10.60;;;;;;;;;;5000127;28;20038;-53
2021/07/27 10:13:11;;;;;;;18.88;10.23;;;;;;;;;;5003436;28;20046;-53
2021/07/27 10:15:42;;;;;;;20.60;9.85;;;;;;;;;;4996962;28;20049;-53
2021/07/27 10:18:09;;;;;;;18.60;9.35;;;;;;;;;;5018734;28;20046;-52
2021/07/27 10:20:35;;;;;;;24.60;10.43;;;;;;;;;;4998376;28;20045;-54
2021/07/27 10:23:14;;;;;;;16.17;9.77;;;;;;;;;;5005367;28;20057;-54
2021/07/27 10:25:40;;;;;;;;;;;;;;;;;;4999619;28;20070;-53
2021/07/27 10:28:07;;;;;;;16.83;8.95;;;;;;;;;;5002367;28;19940;-55
2021/07/27 10:30:35;;;;;;;24.17;9.63;;;;;;;;;;5000587;28;20035;-50
2021/07/27 10:33:02;;;;;;;20.95;10.88;;;;;;;;;;5002253;28;20046;-52
2021/07/27 10:35:29;;;;;;;27.50;15.10;;;;;;;;;;5001818;28;20066;-50
2021/07/27 10:37:56;;;;;;;19.48;11.98;;;;;;;;;;5002674;28;20124;-52
2021/07/27 10:40:30;;;;;;;22.00;11.85;;;;;;;;;;5003482;28;20038;-53
2021/07/27 10:42:57;;;;;;;20.25;9.98;;;;;;;;;;5000164;28;20057;-52
2021/07/27 10:45:25;;;;;;;20.60;10.55;;;;;;;;;;5003475;28;20042;-51
2021/07/27 10:47:52;;;;;;;;;;;;;;;;;;4999277;28;20120;-52
2021/07/27 10:50:25;;;;;;;17.38;10.68;;;;;;;;;;5002625;28;19919;-52
2021/07/27 10:53:00;;;;;;;23.90;10.88;;;;;;;;;;4998968;28;20054;-51
2021/07/27 10:55:28;;;;;;;20.73;11.00;;;;;;;;;;5002522;28;20038;-54
2021/07/27 10:57:55;;;;;;;22.95;10.77;;;;;;;;;;4999463;28;20075;-52
2021/07/27 11:00:30;;;;;;;21.77;11.10;;;;;;;;;;5003057;28;20057;-52
2021/07/27 11:02:56;;;;;;;23.25;11.00;;;;;;;;;;5000537;28;20276;-52
2021/07/27 11:05:28;;;;;;;19.80;11.00;;;;;;;;;;5003295;28;20045;-54
2021/07/27 11:07:55;;;;;;;18.70;10.90;;;;;;;;;;5013406;28;20049;-53
2021/07/27 11:10:22;;;;;;;18.90;11.50;;;;;;;;;;5018124;28;20157;-52
2021/07/27 11:12:48;;;;;;;20.65;12.02;;;;;;;;;;5014356;28;20050;-52
2021/07/27 11:15:18;;;;;;;27.52;12.63;;;;;;;;;;5002645;28;20061;-52
2021/07/27 11:17:45;;;;;;;24.67;12.35;;;;;;;;;;4994979;28;20054;-51
2021/07/27 11:20:13;;;;;;;29.63;12.23;;;;;;;;;;4984881;28;20054;-52
2021/07/27 11:22:43;;;;;;;31.63;16.83;;;;;;;;;;4985124;28;20046;-50
2021/07/27 11:25:10;;;;;;;29.77;14.75;;;;;;;;;;5001230;28;20048;-50
2021/07/27 11:27:36;;;;;;;34.08;13.23;;;;;;;;;;4999215;28;20048;-52
2021/07/27 11:30:05;;;;;;;21.92;6.60;;;;;;;;;;5003793;28;20049;-54
2021/07/27 11:32:39;;;;;;;15.60;5.20;;;;;;;;;;5003207;28;20038;-54
2021/07/27 11:35:06;;;;;;;15.13;3.38;;;;;;;;;;5002115;28;20034;-57
2021/07/27 11:37:33;;;;;;;7.50;2.50;;;;;;;;;;5014841;28;20046;-57
2021/07/27 11:40:01;;;;;;;11.32;2.67;;;;;;;;;;4987723;28;20046;-56
2021/07/27 11:42:29;;;;;;;7.82;2.30;;;;;;;;;;4982284;28;20038;-55
2021/07/27 11:44:56;;;;;;;5.25;2.70;;;;;;;;;;4995781;28;20022;-55
2021/07/27 11:47:25;;;;;;;8.45;2.65;;;;;;;;;;5002409;28;20050;-55
2021/07/27 11:49:55;;;;;;;11.63;2.40;;;;;;;;;;4983963;28;20038;-52
2021/07/27 11:52:26;;;;;;;7.05;2.58;;;;;;;;;;4981514;28;20043;-55
2021/07/27 11:55:01;;;;;;;7.30;2.75;;;;;;;;;;4990032;28;20074;-54
2021/07/27 11:57:28;;;;;;;8.25;2.33;;;;;;;;;;5001695;28;20038;-54
2021/07/27 12:00:05;;;;;;;6.50;2.60;;;;;;;;;;4997750;28;20078;-55
2021/07/27 12:02:32;;;;;;;10.23;2.33;;;;;;;;;;5002136;28;20050;-55
2021/07/27 12:04:59;;;;;;;8.68;2.50;;;;;;;;;;4996037;28;20050;-56
2021/07/27 12:07:29;;;;;;;5.68;2.45;;;;;;;;;;5003141;28;20034;-54
2021/07/27 12:09:55;;;;;;;5.75;2.50;;;;;;;;;;4991838;28;20041;-54
2021/07/27 12:12:23;;;;;;;5.82;2.53;;;;;;;;;;4993245;28;20035;-52
2021/07/27 12:14:49;;;;;;;8.02;2.92;;;;;;;;;;4998980;28;20057;-53
2021/07/27 12:17:16;;;;;;;8.45;2.80;;;;;;;;;;5017119;28;20041;-55
2021/07/27 12:19:43;;;;;;;5.88;2.45;;;;;;;;;;5014749;28;20041;-53
2021/07/27 12:22:11;;;;;;;8.00;2.83;;;;;;;;;;5001299;28;20034;-54
2021/07/27 12:24:38;;;;;;;7.13;3.03;;;;;;;;;;5001360;28;20057;-54
2021/07/27 12:27:05;;;;;;;6.88;3.25;;;;;;;;;;4979021;28;20046;-53
2021/07/27 12:29:33;;;;;;;7.32;3.53;;;;;;;;;;4981972;28;20054;-53
2021/07/27 12:31:59;;;;;;;6.65;3.00;;;;;;;;;;4978224;28;20070;-54
2021/07/27 12:34:26;;;;;;;7.13;3.10;;;;;;;;;;4981788;28;20045;-54
2021/07/27 12:36:53;;;;;;;10.23;2.80;;;;;;;;;;4995165;28;20046;-52
2021/07/27 12:39:20;;;;;;;12.65;3.65;;;;;;;;;;5001379;28;20058;-55
2021/07/27 12:41:46;;;;;;;7.43;3.33;;;;;;;;;;4998127;28;20098;-54
2021/07/27 12:44:13;;;;;;;7.43;3.45;;;;;;;;;;5003580;28;20050;-54
2021/07/27 12:46:41;;;;;;;7.50;3.25;;;;;;;;;;4997724;28;20046;-56
2021/07/27 12:49:09;;;;;;;10.20;3.38;;;;;;;;;;5001556;28;20034;-56
2021/07/27 12:51:35;;;;;;;11.25;5.07;;;;;;;;;;4999941;28;20034;-56
2021/07/27 12:54:02;;;;;;;10.63;4.15;;;;;;;;;;5000396;28;20046;-54
2021/07/27 12:56:29;;;;;;;10.68;3.95;;;;;;;;;;4993932;28;20052;-53
2021/07/27 12:58:58;;;;;;;10.00;4.13;;;;;;;;;;4982421;28;20042;-56
2021/07/27 13:01:24;;;;;;;11.35;4.28;;;;;;;;;;4982547;28;20071;-55
2021/07/27 13:03:52;;;;;;;12.38;6.82;;;;;;;;;;5002195;28;20056;-55
2021/07/27 13:06:18;;;;;;;9.40;4.68;;;;;;;;;;4999105;28;20046;-51
2021/07/27 13:08:45;;;;;;;12.63;4.32;;;;;;;;;;4981113;28;20062;-55
2021/07/27 13:11:12;;;;;;;7.68;4.05;;;;;;;;;;4997143;28;20049;-54
2021/07/27 13:13:38;;;;;;;9.30;3.15;;;;;;;;;;4981536;28;20046;-54
2021/07/27 13:16:06;;;;;;;11.80;3.67;;;;;;;;;;4984091;28;20043;-54
2021/07/27 13:18:33;;;;;;;8.77;4.18;;;;;;;;;;4979376;28;20058;-52
2021/07/27 13:21:01;;;;;;;7.53;3.78;;;;;;;;;;4982228;28;20058;-56
2021/07/27 13:23:28;;;;;;;8.35;4.18;;;;;;;;;;4977926;28;20058;-55
2021/07/27 13:25:54;;;;;;;10.38;5.13;;;;;;;;;;4981875;28;20050;-53
2021/07/27 13:28:21;;;;;;;9.38;4.50;;;;;;;;;;4989705;28;20046;-55
2021/07/27 13:30:47;;;;;;;11.27;4.72;;;;;;;;;;4999153;28;20046;-56
2021/07/27 13:33:14;;;;;;;10.68;4.63;;;;;;;;;;4991895;28;20049;-56
2021/07/27 13:35:40;;;;;;;9.82;3.85;;;;;;;;;;5004238;28;20053;-56
2021/07/27 13:38:08;;;;;;;8.75;3.92;;;;;;;;;;4996221;28;20094;-55
2021/07/27 13:40:35;;;;;;;7.18;3.47;;;;;;;;;;4984473;28;20046;-56
2021/07/27 13:43:01;;;;;;;8.48;3.78;;;;;;;;;;4984948;28;20132;-56
2021/07/27 13:45:29;;;;;;;8.10;3.58;;;;;;;;;;5005753;28;20046;-51
2021/07/27 13:47:55;;;;;;;10.00;3.20;;;;;;;;;;5004237;28;20038;-51
2021/07/27 13:50:22;;;;;;;10.48;4.97;;;;;;;;;;5002131;28;20341;-55
2021/07/27 13:52:48;;;;;;;8.77;3.78;;;;;;;;;;5002619;28;20129;-52
2021/07/27 13:55:16;;;;;;;9.10;3.58;;;;;;;;;;4998453;28;20042;-56
2021/07/27 13:57:43;;;;;;;12.30;4.20;;;;;;;;;;4983632;28;20039;-54
2021/07/27 14:00:12;;;;;;;9.88;3.83;;;;;;;;;;4996342;28;20038;-56
2021/07/27 14:02:39;;;;;;;7.80;3.70;;;;;;;;;;5003628;28;20046;-52
2021/07/27 14:05:06;;;;;;;8.93;3.50;;;;;;;;;;5018805;28;20046;-56
2021/07/27 14:07:34;;;;;;;10.85;3.95;;;;;;;;;;5022738;28;20038;-55
2021/07/27 14:10:02;;;;;;;9.43;4.40;;;;;;;;;;5002291;28;20045;-56
2021/07/27 14:12:30;;;;;;;13.03;4.87;;;;;;;;;;4995298;28;20038;-55
2021/07/27 14:14:56;;;;;;;8.82;4.30;;;;;;;;;;5018971;28;20048;-56
2021/07/27 14:17:23;;;;;;;7.63;4.10;;;;;;;;;;5006209;28;20102;-55
2021/07/27 14:19:50;;;;;;;7.07;4.00;;;;;;;;;;5000290;28;20041;-54
2021/07/27 14:22:17;;;;;;;10.68;4.40;;;;;;;;;;5005442;28;20033;-55
2021/07/27 14:24:43;;;;;;;11.27;4.82;;;;;;;;;;4999174;28;20058;-56
2021/07/27 14:27:11;;;;;;;9.75;5.35;;;;;;;;;;4987614;28;20034;-53
2021/07/27 14:29:38;;;;;;;13.90;5.25;;;;;;;;;;4984968;28;20048;-55
2021/07/27 14:32:05;;;;;;;13.68;5.35;;;;;;;;;;5005238;28;20061;-57
2021/07/27 14:34:32;;;;;;;12.23;5.25;;;;;;;;;;5006882;28;20068;-53
2021/07/27 14:36:59;;;;;;;12.52;5.63;;;;;;;;;;4999494;28;20038;-56
2021/07/27 14:39:25;;;;;;;13.88;5.20;;;;;;;;;;5005015;28;20043;-55
2021/07/27 14:41:51;;;;;;;12.70;5.15;;;;;;;;;;5003068;28;20045;-55
2021/07/27 14:44:18;;;;;;;11.52;5.45;;;;;;;;;;5005171;28;20115;-54